createdAt,value
2022-12-05T00:02:28.346Z,18.2
2022-12-05T00:10:00.844Z,18.1
2022-12-05T00:17:33.155Z,18.1
2022-12-05T00:25:05.444Z,18.0
2022-12-05T00:32:37.779Z,18.0
2022-12-05T00:40:10.101Z,18.0
2022-12-05T00:47:42.421Z,18.0
2022-12-05T00:55:14.734Z,18.0
2022-12-05T01:02:47.132Z,18.1
2022-12-05T01:10:19.504Z,18.0
2022-12-05T01:17:51.813Z,18.0
2022-12-05T01:25:24.120Z,17.9
2022-12-05T01:32:56.435Z,17.9
2022-12-05T01:40:28.729Z,17.9
2022-12-05T01:48:01.038Z,17.8
2022-12-05T01:55:33.337Z,17.8
2022-12-05T02:03:05.672Z,17.8
2022-12-05T02:10:37.947Z,17.8
2022-12-05T02:18:10.216Z,17.8
2022-12-05T02:25:42.486Z,17.8
2022-12-05T02:33:14.763Z,17.8
2022-12-05T02:40:47.039Z,17.8
2022-12-05T02:48:19.312Z,17.8
2022-12-05T02:55:51.570Z,17.8
2022-12-05T03:03:23.837Z,17.8
2022-12-05T03:10:56.150Z,17.8
2022-12-05T03:18:28.454Z,17.8
2022-12-05T03:26:00.760Z,17.9
2022-12-05T03:33:33.040Z,17.8
2022-12-05T03:41:05.354Z,17.8
2022-12-05T03:48:37.657Z,17.8
2022-12-05T03:56:09.960Z,17.9
2022-12-05T04:03:42.270Z,17.8
2022-12-05T04:11:14.594Z,17.8
2022-12-05T04:18:46.855Z,17.9
2022-12-05T04:26:19.149Z,17.9
2022-12-05T04:33:51.457Z,17.8
2022-12-05T04:41:23.733Z,17.8
2022-12-05T04:48:56.011Z,17.9
2022-12-05T04:56:28.317Z,17.8
2022-12-05T05:04:00.592Z,17.8
2022-12-05T05:11:32.866Z,17.8
2022-12-05T05:19:05.166Z,17.8
2022-12-05T05:21:17.405Z,17.8
2022-12-05T05:22:04.669Z,17.8
2022-12-05T05:22:52.001Z,17.8
2022-12-05T05:23:39.314Z,17.8
2022-12-05T05:24:26.638Z,17.9
2022-12-05T05:25:13.931Z,17.9
2022-12-05T05:26:01.198Z,18.0
2022-12-05T05:26:52.493Z,18.0
2022-12-05T05:27:42.863Z,18.0
2022-12-05T05:28:30.260Z,18.1
2022-12-05T05:29:17.531Z,18.1
2022-12-05T05:30:04.847Z,18.1
2022-12-05T05:30:52.248Z,18.2
2022-12-05T05:31:39.724Z,18.2
2022-12-05T05:32:27.056Z,18.2
2022-12-05T05:33:14.458Z,18.2
2022-12-05T05:34:08.921Z,18.2
2022-12-05T05:34:56.882Z,18.2
2022-12-05T05:35:44.362Z,18.3
2022-12-05T05:36:31.622Z,18.3
2022-12-05T05:37:18.952Z,18.3
2022-12-05T05:38:06.323Z,18.3
2022-12-05T05:38:53.638Z,18.3
2022-12-05T05:39:40.913Z,18.3
2022-12-05T05:40:28.372Z,18.2
2022-12-05T05:41:15.660Z,18.2
2022-12-05T05:42:02.921Z,18.1
2022-12-05T05:42:50.407Z,18.1
2022-12-05T05:43:37.682Z,18.1
2022-12-05T05:44:24.940Z,18.1
2022-12-05T05:45:12.369Z,18.1
2022-12-05T05:45:59.678Z,18.1
2022-12-05T05:46:47.023Z,18.1
2022-12-05T05:47:34.409Z,18.1
2022-12-05T05:48:22.534Z,18.2
2022-12-05T05:49:09.850Z,18.2
2022-12-05T05:49:57.524Z,18.2
2022-12-05T05:50:45.318Z,18.2
2022-12-05T05:51:32.584Z,18.2
2022-12-05T05:52:19.862Z,18.2
2022-12-05T05:53:07.130Z,18.3
2022-12-05T05:53:54.402Z,18.3
2022-12-05T05:54:41.675Z,18.3
2022-12-05T05:55:29.096Z,18.3
2022-12-05T05:56:21.232Z,18.3
2022-12-05T05:57:09.175Z,18.4
2022-12-05T05:57:56.599Z,18.4
2022-12-05T05:58:43.892Z,18.5
2022-12-05T05:59:31.164Z,18.5
2022-12-05T06:00:18.590Z,18.6
2022-12-05T06:01:05.925Z,18.7
2022-12-05T06:01:53.199Z,18.8
2022-12-05T06:02:40.795Z,18.8
2022-12-05T06:03:28.296Z,18.9
2022-12-05T06:04:15.701Z,18.9
2022-12-05T06:05:03.069Z,19.0
2022-12-05T06:05:53.157Z,19.1
2022-12-05T06:06:40.533Z,19.2
2022-12-05T06:07:27.956Z,19.2
2022-12-05T06:08:15.265Z,19.3
2022-12-05T06:09:02.669Z,19.4
2022-12-05T06:09:50.032Z,19.4
2022-12-05T06:10:37.336Z,19.5
2022-12-05T06:11:26.153Z,19.6
2022-12-05T06:12:13.727Z,19.6
2022-12-05T06:13:01.218Z,19.7
2022-12-05T06:13:48.512Z,19.7
2022-12-05T06:14:35.835Z,19.8
2022-12-05T06:15:23.211Z,19.9
2022-12-05T06:16:10.551Z,19.9
2022-12-05T06:16:57.948Z,20.0
2022-12-05T06:17:45.353Z,20.0
2022-12-05T06:18:32.635Z,20.1
2022-12-05T06:19:19.890Z,20.1
2022-12-05T06:20:07.357Z,20.2
2022-12-05T06:20:54.622Z,20.3
2022-12-05T06:21:41.933Z,20.3
2022-12-05T06:22:29.337Z,20.3
2022-12-05T06:23:16.632Z,20.4
2022-12-05T06:24:03.934Z,20.4
2022-12-05T06:24:51.358Z,20.5
2022-12-05T06:25:38.604Z,20.5
2022-12-05T06:26:25.908Z,20.6
2022-12-05T06:27:13.302Z,20.6
2022-12-05T06:28:00.612Z,20.7
2022-12-05T06:28:47.926Z,20.7
2022-12-05T06:29:35.296Z,20.7
2022-12-05T06:30:22.575Z,20.8
2022-12-05T06:31:09.931Z,20.8
2022-12-05T06:31:57.301Z,20.8
2022-12-05T06:32:44.683Z,20.9
2022-12-05T06:33:31.977Z,20.9
2022-12-05T06:34:19.389Z,20.9
2022-12-05T06:35:06.700Z,21.0
2022-12-05T06:35:53.973Z,21.0
2022-12-05T06:36:41.398Z,21.1
2022-12-05T06:37:28.704Z,21.1
2022-12-05T06:38:15.974Z,21.1
2022-12-05T06:39:03.406Z,21.1
2022-12-05T06:39:50.713Z,21.2
2022-12-05T06:40:37.975Z,21.2
2022-12-05T06:41:25.402Z,21.3
2022-12-05T06:42:12.687Z,21.3
2022-12-05T06:43:00.012Z,21.3
2022-12-05T06:43:47.389Z,21.4
2022-12-05T06:44:34.728Z,21.5
2022-12-05T06:45:22.035Z,21.5
2022-12-05T06:46:09.517Z,21.6
2022-12-05T06:46:56.876Z,21.6
2022-12-05T06:47:44.148Z,21.6
2022-12-05T06:48:31.575Z,21.7
2022-12-05T06:49:18.811Z,21.8
2022-12-05T06:50:06.079Z,21.8
2022-12-05T06:50:53.602Z,21.8
2022-12-05T06:51:40.916Z,21.8
2022-12-05T06:52:28.210Z,21.9
2022-12-05T06:53:15.664Z,21.9
2022-12-05T06:54:02.941Z,22.0
2022-12-05T06:54:50.250Z,22.0
2022-12-05T06:55:37.673Z,22.0
2022-12-05T06:56:24.945Z,22.0
2022-12-05T06:57:12.210Z,22.0
2022-12-05T06:57:59.694Z,22.1
2022-12-05T06:58:47.003Z,22.0
2022-12-05T06:59:34.286Z,22.0
2022-12-05T07:00:21.793Z,22.1
2022-12-05T07:01:09.253Z,22.0
2022-12-05T07:01:56.640Z,22.1
2022-12-05T07:02:44.074Z,22.1
2022-12-05T07:03:31.446Z,22.1
2022-12-05T07:04:18.773Z,22.1
2022-12-05T07:05:06.189Z,22.1
2022-12-05T07:05:53.510Z,22.1
2022-12-05T07:06:40.821Z,22.2
2022-12-05T07:07:28.222Z,22.2
2022-12-05T07:08:15.577Z,22.2
2022-12-05T07:09:02.932Z,22.2
2022-12-05T07:09:50.389Z,22.3
2022-12-05T07:10:37.837Z,22.3
2022-12-05T07:11:25.139Z,22.3
2022-12-05T07:12:12.858Z,22.3
2022-12-05T07:13:00.249Z,22.4
2022-12-05T07:13:47.644Z,22.4
2022-12-05T07:14:50.580Z,22.4
2022-12-05T07:15:32.245Z,22.4
2022-12-05T07:16:19.677Z,22.4
2022-12-05T07:17:07.033Z,22.4
2022-12-05T07:17:54.357Z,22.5
2022-12-05T07:18:41.759Z,22.5
2022-12-05T07:19:29.060Z,22.5
2022-12-05T07:20:16.356Z,22.5
2022-12-05T07:21:11.643Z,22.6
2022-12-05T07:21:59.725Z,22.6
2022-12-05T07:22:47.095Z,22.6
2022-12-05T07:23:34.359Z,22.6
2022-12-05T07:24:21.624Z,22.6
2022-12-05T07:25:09.053Z,22.6
2022-12-05T07:25:56.359Z,22.6
2022-12-05T07:26:43.632Z,22.7
2022-12-05T07:27:31.015Z,22.7
2022-12-05T07:28:18.278Z,22.7
2022-12-05T07:29:05.589Z,22.8
2022-12-05T07:29:53.014Z,22.8
2022-12-05T07:30:40.333Z,22.8
2022-12-05T07:31:27.687Z,22.8
2022-12-05T07:32:15.103Z,22.8
2022-12-05T07:33:02.498Z,22.8
2022-12-05T07:33:49.810Z,22.9
2022-12-05T07:34:37.168Z,22.9
2022-12-05T07:35:24.472Z,22.9
2022-12-05T07:36:11.747Z,23.0
2022-12-05T07:36:59.201Z,23.0
2022-12-05T07:37:46.495Z,23.0
2022-12-05T07:38:33.836Z,23.0
2022-12-05T07:39:21.318Z,23.0
2022-12-05T07:40:08.643Z,23.0
2022-12-05T07:40:55.922Z,23.0
2022-12-05T07:41:43.383Z,23.1
2022-12-05T07:42:30.646Z,23.1
2022-12-05T07:43:17.952Z,23.2
2022-12-05T07:44:05.360Z,23.2
2022-12-05T07:44:52.690Z,23.2
2022-12-05T07:45:40.037Z,23.2
2022-12-05T07:46:27.454Z,23.2
2022-12-05T07:47:14.890Z,23.2
2022-12-05T07:48:02.272Z,23.3
2022-12-05T07:48:49.623Z,23.2
2022-12-05T07:49:36.942Z,23.2
2022-12-05T07:50:24.261Z,23.2
2022-12-05T07:51:11.685Z,23.2
2022-12-05T07:51:58.963Z,23.2
2022-12-05T07:52:46.273Z,23.1
2022-12-05T07:53:33.678Z,23.2
2022-12-05T07:54:20.998Z,23.2
2022-12-05T07:55:08.331Z,23.2
2022-12-05T07:55:55.712Z,23.3
2022-12-05T07:56:47.545Z,23.3
2022-12-05T07:57:35.342Z,23.3
2022-12-05T07:58:22.840Z,23.3
2022-12-05T07:59:10.130Z,23.3
2022-12-05T07:59:57.683Z,23.3
2022-12-05T08:00:45.263Z,23.3
2022-12-05T08:01:32.967Z,23.3
2022-12-05T08:02:20.393Z,23.3
2022-12-05T08:03:07.698Z,23.3
2022-12-05T08:03:55.225Z,23.4
2022-12-05T08:04:42.502Z,23.4
2022-12-05T08:05:29.881Z,23.4
2022-12-05T08:06:17.208Z,23.4
2022-12-05T08:07:04.511Z,23.4
2022-12-05T08:07:51.869Z,23.4
2022-12-05T08:08:39.237Z,23.4
2022-12-05T08:09:26.534Z,23.4
2022-12-05T08:10:13.896Z,23.4
2022-12-05T08:11:01.242Z,23.4
2022-12-05T08:11:52.512Z,23.4
2022-12-05T08:12:40.171Z,23.4
2022-12-05T08:13:27.559Z,23.4
2022-12-05T08:14:14.860Z,23.4
2022-12-05T08:15:02.219Z,23.4
2022-12-05T08:15:49.597Z,23.5
2022-12-05T08:16:36.949Z,23.5
2022-12-05T08:17:24.279Z,23.5
2022-12-05T08:18:11.757Z,23.5
2022-12-05T08:18:59.041Z,23.5
2022-12-05T08:19:46.319Z,23.5
2022-12-05T08:20:33.755Z,23.5
2022-12-05T08:21:21.070Z,23.5
2022-12-05T08:22:08.382Z,23.5
2022-12-05T08:22:55.767Z,23.5
2022-12-05T08:23:43.072Z,23.5
2022-12-05T08:24:30.406Z,23.6
2022-12-05T08:25:17.804Z,23.5
2022-12-05T08:26:05.143Z,23.6
2022-12-05T08:26:52.419Z,23.5
2022-12-05T08:27:39.846Z,23.5
2022-12-05T08:28:27.171Z,23.5
2022-12-05T08:29:14.508Z,23.5
2022-12-05T08:30:01.928Z,23.6
2022-12-05T08:30:49.295Z,23.6
2022-12-05T08:31:36.583Z,23.6
2022-12-05T08:32:24.006Z,23.6
2022-12-05T08:33:11.280Z,23.6
2022-12-05T08:33:59.418Z,23.6
2022-12-05T08:34:46.901Z,23.6
2022-12-05T08:35:34.223Z,23.6
2022-12-05T08:36:21.486Z,23.6
2022-12-05T08:37:08.752Z,23.6
2022-12-05T08:37:56.157Z,23.6
2022-12-05T08:38:43.476Z,23.6
2022-12-05T08:39:36.688Z,23.6
2022-12-05T08:40:25.744Z,23.6
2022-12-05T08:41:13.086Z,23.6
2022-12-05T08:42:00.374Z,23.6
2022-12-05T08:42:47.641Z,23.7
2022-12-05T08:43:35.043Z,23.6
2022-12-05T08:44:22.337Z,23.6
2022-12-05T08:45:09.643Z,23.6
2022-12-05T08:45:57.073Z,23.6
2022-12-05T08:46:44.533Z,23.6
2022-12-05T08:47:32.560Z,23.6
2022-12-05T08:48:23.475Z,23.6
2022-12-05T08:49:13.365Z,23.6
2022-12-05T08:50:00.866Z,23.6
2022-12-05T08:50:48.348Z,23.7
2022-12-05T08:51:35.653Z,23.7
2022-12-05T08:52:23.024Z,23.7
2022-12-05T08:53:10.358Z,23.7
2022-12-05T08:53:57.669Z,23.7
2022-12-05T08:54:45.039Z,23.7
2022-12-05T08:55:32.307Z,23.7
2022-12-05T08:56:24.977Z,23.7
2022-12-05T08:57:14.092Z,23.7
2022-12-05T08:58:01.486Z,23.7
2022-12-05T08:58:48.758Z,23.7
2022-12-05T08:59:36.058Z,23.7
2022-12-05T09:00:23.462Z,23.7
2022-12-05T09:01:10.961Z,23.7
2022-12-05T09:01:58.488Z,23.7
2022-12-05T09:02:45.875Z,23.7
2022-12-05T09:03:33.206Z,23.7
2022-12-05T09:04:20.527Z,23.7
2022-12-05T09:05:26.368Z,23.8
2022-12-05T09:06:05.158Z,23.7
2022-12-05T09:06:52.571Z,23.8
2022-12-05T09:07:39.892Z,23.8
2022-12-05T09:08:27.224Z,23.8
2022-12-05T09:09:14.598Z,23.8
2022-12-05T09:10:01.882Z,23.8
2022-12-05T09:10:49.148Z,23.9
2022-12-05T09:11:36.587Z,23.9
2022-12-05T09:12:23.892Z,23.9
2022-12-05T09:13:11.167Z,23.9
2022-12-05T09:13:58.594Z,23.9
2022-12-05T09:14:45.942Z,23.9
2022-12-05T09:15:33.236Z,23.9
2022-12-05T09:16:20.711Z,23.9
2022-12-05T09:17:08.073Z,23.9
2022-12-05T09:17:55.393Z,24.0
2022-12-05T09:18:42.753Z,23.9
2022-12-05T09:19:30.077Z,23.9
2022-12-05T09:20:17.571Z,23.9
2022-12-05T09:21:04.922Z,23.9
2022-12-05T09:21:52.253Z,23.9
2022-12-05T09:22:39.730Z,23.9
2022-12-05T09:23:27.015Z,23.9
2022-12-05T09:24:14.287Z,24.0
2022-12-05T09:25:01.615Z,24.0
2022-12-05T09:25:49.014Z,23.9
2022-12-05T09:26:36.294Z,23.9
2022-12-05T09:27:23.642Z,23.9
2022-12-05T09:28:11.101Z,23.9
2022-12-05T09:28:58.381Z,23.9
2022-12-05T09:29:45.691Z,23.9
2022-12-05T09:30:33.112Z,23.9
2022-12-05T09:31:20.512Z,23.9
2022-12-05T09:32:07.888Z,23.9
2022-12-05T09:32:55.350Z,24.0
2022-12-05T09:33:42.629Z,24.0
2022-12-05T09:34:29.903Z,24.0
2022-12-05T09:35:17.327Z,24.0
2022-12-05T09:36:04.565Z,24.0
2022-12-05T09:36:55.622Z,24.0
2022-12-05T09:37:45.849Z,24.0
2022-12-05T09:38:33.246Z,24.0
2022-12-05T09:39:20.549Z,24.0
2022-12-05T09:40:07.824Z,24.0
2022-12-05T09:40:58.863Z,24.0
2022-12-05T09:41:46.411Z,24.0
2022-12-05T09:42:33.729Z,24.0
2022-12-05T09:43:21.257Z,24.1
2022-12-05T09:44:08.589Z,24.1
2022-12-05T09:44:56.195Z,24.1
2022-12-05T09:45:43.675Z,24.1
2022-12-05T09:46:35.468Z,24.1
2022-12-05T09:47:23.081Z,24.1
2022-12-05T09:48:10.522Z,24.1
2022-12-05T09:48:57.828Z,24.1
2022-12-05T09:49:45.150Z,24.1
2022-12-05T09:50:32.592Z,24.1
2022-12-05T09:51:19.874Z,24.1
2022-12-05T09:52:07.156Z,24.1
2022-12-05T09:52:54.649Z,24.1
2022-12-05T09:53:41.925Z,24.1
2022-12-05T09:54:29.252Z,24.2
2022-12-05T09:55:16.639Z,24.2
2022-12-05T09:56:03.991Z,24.2
2022-12-05T09:56:51.331Z,24.2
2022-12-05T09:57:38.725Z,24.1
2022-12-05T09:58:26.100Z,24.2
2022-12-05T09:59:13.457Z,24.2
2022-12-05T10:00:00.804Z,24.1
2022-12-05T10:00:48.068Z,24.2
2022-12-05T10:01:35.422Z,24.2
2022-12-05T10:02:23.269Z,24.2
2022-12-05T10:03:10.784Z,24.2
2022-12-05T10:03:58.064Z,24.2
2022-12-05T10:04:45.417Z,24.3
2022-12-05T10:05:32.773Z,24.3
2022-12-05T10:06:20.057Z,24.3
2022-12-05T10:07:07.482Z,24.3
2022-12-05T10:07:54.775Z,24.2
2022-12-05T10:08:42.102Z,24.3
2022-12-05T10:09:29.387Z,24.3
2022-12-05T10:10:20.197Z,24.3
2022-12-05T10:11:08.101Z,24.3
2022-12-05T10:11:55.513Z,24.3
2022-12-05T10:12:42.832Z,24.2
2022-12-05T10:13:30.137Z,24.2
2022-12-05T10:14:17.553Z,24.2
2022-12-05T10:15:04.861Z,24.2
2022-12-05T10:15:56.991Z,24.2
2022-12-05T10:16:44.857Z,24.2
2022-12-05T10:17:32.674Z,24.2
2022-12-05T10:18:20.245Z,24.2
2022-12-05T10:19:07.518Z,24.2
2022-12-05T10:19:54.905Z,24.2
2022-12-05T10:20:42.234Z,24.2
2022-12-05T10:21:29.556Z,24.2
2022-12-05T10:22:20.469Z,24.3
2022-12-05T10:23:08.223Z,24.3
2022-12-05T10:23:58.229Z,24.3
2022-12-05T10:24:46.024Z,24.3
2022-12-05T10:25:33.430Z,24.3
2022-12-05T10:26:20.733Z,24.4
2022-12-05T10:27:08.010Z,24.4
2022-12-05T10:27:55.308Z,24.4
2022-12-05T10:28:42.604Z,24.4
2022-12-05T10:29:29.880Z,24.4
2022-12-05T10:30:17.315Z,24.4
2022-12-05T10:31:04.689Z,24.4
2022-12-05T10:31:52.085Z,24.4
2022-12-05T10:32:39.420Z,24.4
2022-12-05T10:33:26.738Z,24.4
2022-12-05T10:34:14.010Z,24.4
2022-12-05T10:35:01.515Z,24.5
2022-12-05T10:35:48.795Z,24.5
2022-12-05T10:36:36.097Z,24.4
2022-12-05T10:37:23.493Z,24.4
2022-12-05T10:38:10.762Z,24.4
2022-12-05T10:38:58.015Z,24.4
2022-12-05T10:39:45.489Z,24.4
2022-12-05T10:40:32.763Z,24.4
2022-12-05T10:41:20.062Z,24.4
2022-12-05T10:42:07.461Z,24.4
2022-12-05T10:42:54.765Z,24.4
2022-12-05T10:43:42.030Z,24.5
2022-12-05T10:44:29.515Z,24.5
2022-12-05T10:45:16.805Z,24.5
2022-12-05T10:46:05.023Z,24.5
2022-12-05T10:46:54.564Z,24.5
2022-12-05T10:47:41.933Z,24.5
2022-12-05T10:48:29.238Z,24.4
2022-12-05T10:49:16.539Z,24.5
2022-12-05T10:50:03.928Z,24.4
2022-12-05T10:50:51.236Z,24.4
2022-12-05T10:51:38.602Z,24.4
2022-12-05T10:52:25.900Z,24.4
2022-12-05T10:53:13.168Z,24.4
2022-12-05T10:54:00.458Z,24.4
2022-12-05T10:54:47.855Z,24.4
2022-12-05T10:55:35.128Z,24.4
2022-12-05T10:56:30.312Z,24.4
2022-12-05T10:57:18.199Z,24.4
2022-12-05T10:58:05.551Z,24.4
2022-12-05T10:58:52.854Z,24.5
2022-12-05T10:59:40.587Z,24.5
2022-12-05T11:00:28.492Z,24.5
2022-12-05T11:01:16.617Z,24.5
2022-12-05T11:02:04.680Z,24.5
2022-12-05T11:02:52.304Z,24.6
2022-12-05T11:03:39.573Z,24.6
2022-12-05T11:04:26.872Z,24.6
2022-12-05T11:05:14.254Z,24.6
2022-12-05T11:06:01.559Z,24.6
2022-12-05T11:06:48.852Z,24.6
2022-12-05T11:07:36.225Z,24.6
2022-12-05T11:08:35.624Z,24.6
2022-12-05T11:09:20.801Z,24.6
2022-12-05T11:10:08.777Z,24.6
2022-12-05T11:10:56.236Z,24.5
2022-12-05T11:11:43.550Z,24.5
2022-12-05T11:12:31.032Z,24.6
2022-12-05T11:13:18.302Z,24.6
2022-12-05T11:14:05.564Z,24.6
2022-12-05T11:14:52.842Z,24.5
2022-12-05T11:15:40.473Z,24.6
2022-12-05T11:16:27.918Z,24.6
2022-12-05T11:17:15.256Z,24.6
2022-12-05T11:18:02.956Z,24.5
2022-12-05T11:25:35.232Z,24.5
2022-12-05T11:33:07.507Z,24.4
2022-12-05T11:37:40.330Z,24.3
2022-12-05T11:38:27.614Z,24.2
2022-12-05T11:39:15.053Z,24.2
2022-12-05T11:40:02.402Z,24.2
2022-12-05T11:40:49.710Z,24.3
2022-12-05T11:41:36.993Z,24.3
2022-12-05T11:42:24.271Z,24.3
2022-12-05T11:43:11.537Z,24.3
2022-12-05T11:43:58.818Z,24.3
2022-12-05T11:44:46.097Z,24.3
2022-12-05T11:45:33.368Z,24.3
2022-12-05T11:46:26.257Z,24.3
2022-12-05T11:47:14.169Z,24.3
2022-12-05T11:48:01.485Z,24.3
2022-12-05T11:48:48.751Z,24.3
2022-12-05T11:49:36.055Z,24.3
2022-12-05T11:50:23.435Z,24.3
2022-12-05T11:51:10.741Z,24.3
2022-12-05T11:51:58.054Z,24.3
2022-12-05T11:52:45.472Z,24.3
2022-12-05T11:53:32.781Z,24.3
2022-12-05T11:54:41.668Z,24.2
2022-12-05T11:55:17.683Z,24.2
2022-12-05T11:56:05.084Z,24.2
2022-12-05T11:56:52.354Z,24.2
2022-12-05T11:57:39.654Z,24.2
2022-12-05T11:58:27.071Z,24.2
2022-12-05T11:59:14.319Z,24.2
2022-12-05T12:00:01.581Z,24.2
2022-12-05T12:00:48.981Z,24.3
2022-12-05T12:01:36.325Z,24.3
2022-12-05T12:02:23.735Z,24.2
2022-12-05T12:03:11.128Z,24.2
2022-12-05T12:03:58.521Z,24.2
2022-12-05T12:04:45.805Z,24.2
2022-12-05T12:05:33.188Z,24.2
2022-12-05T12:06:20.493Z,24.2
2022-12-05T12:07:07.760Z,24.2
2022-12-05T12:07:55.239Z,24.3
2022-12-05T12:08:42.562Z,24.3
2022-12-05T12:09:29.839Z,24.3
2022-12-05T12:10:17.305Z,24.3
2022-12-05T12:11:04.587Z,24.3
2022-12-05T12:11:51.869Z,24.3
2022-12-05T12:12:39.255Z,24.3
2022-12-05T12:13:26.530Z,24.3
2022-12-05T12:14:13.848Z,24.3
2022-12-05T12:15:01.553Z,24.3
2022-12-05T12:15:49.268Z,24.3
2022-12-05T12:16:36.567Z,24.3
2022-12-05T12:17:23.919Z,24.3
2022-12-05T12:18:11.504Z,24.4
2022-12-05T12:18:58.847Z,24.4
2022-12-05T12:19:46.120Z,24.4
2022-12-05T12:20:33.584Z,24.4
2022-12-05T12:21:20.862Z,24.4
2022-12-05T12:22:08.184Z,24.4
2022-12-05T12:22:55.554Z,24.4
2022-12-05T12:23:42.865Z,24.4
2022-12-05T12:24:30.191Z,24.5
2022-12-05T12:25:17.567Z,24.4
2022-12-05T12:26:04.827Z,24.5
2022-12-05T12:26:52.129Z,24.5
2022-12-05T12:27:39.552Z,24.5
2022-12-05T12:28:26.831Z,24.5
2022-12-05T12:29:14.094Z,24.5
2022-12-05T12:30:01.567Z,24.5
2022-12-05T12:30:48.890Z,24.5
2022-12-05T12:31:36.296Z,24.5
2022-12-05T12:32:23.664Z,24.5
2022-12-05T12:33:10.935Z,24.6
2022-12-05T12:33:58.232Z,24.6
2022-12-05T12:34:45.649Z,24.6
2022-12-05T12:35:32.919Z,24.6
2022-12-05T12:36:20.220Z,24.6
2022-12-05T12:37:07.635Z,24.6
2022-12-05T12:37:54.903Z,24.6
2022-12-05T12:38:45.705Z,24.6
2022-12-05T12:39:35.557Z,24.7
2022-12-05T12:40:22.962Z,24.7
2022-12-05T12:41:10.234Z,24.7
2022-12-05T12:41:57.526Z,24.7
2022-12-05T12:42:44.939Z,24.7
2022-12-05T12:43:53.213Z,24.7
2022-12-05T12:44:29.584Z,24.7
2022-12-05T12:45:16.945Z,24.7
2022-12-05T12:46:08.112Z,24.7
2022-12-05T12:46:58.436Z,24.7
2022-12-05T12:47:45.824Z,24.8
2022-12-05T12:48:33.133Z,24.8
2022-12-05T12:49:20.451Z,24.8
2022-12-05T12:50:10.349Z,24.8
2022-12-05T12:50:57.620Z,24.8
2022-12-05T12:51:44.918Z,24.8
2022-12-05T12:52:32.224Z,24.8
2022-12-05T12:53:19.504Z,24.9
2022-12-05T12:54:06.830Z,24.9
2022-12-05T12:55:09.313Z,24.8
2022-12-05T12:55:51.351Z,24.9
2022-12-05T12:56:38.792Z,24.8
2022-12-05T12:57:26.115Z,24.8
2022-12-05T12:58:13.395Z,24.7
2022-12-05T12:59:00.845Z,24.6
2022-12-05T12:59:48.150Z,24.6
2022-12-05T13:00:35.442Z,24.6
2022-12-05T13:01:22.965Z,24.6
2022-12-05T13:02:10.406Z,24.5
2022-12-05T13:02:57.775Z,24.5
2022-12-05T13:03:49.871Z,24.5
2022-12-05T13:04:38.742Z,24.4
2022-12-05T13:05:26.170Z,24.4
2022-12-05T13:06:13.485Z,24.4
2022-12-05T13:07:00.829Z,24.3
2022-12-05T13:07:48.256Z,24.3
2022-12-05T13:08:35.563Z,24.3
2022-12-05T13:09:22.847Z,24.3
2022-12-05T13:10:10.251Z,24.3
2022-12-05T13:10:57.524Z,24.2
2022-12-05T13:11:44.823Z,24.2
2022-12-05T13:12:32.225Z,24.2
2022-12-05T13:13:19.494Z,24.2
2022-12-05T13:14:06.804Z,24.2
2022-12-05T13:14:54.191Z,24.2
2022-12-05T13:15:41.595Z,24.2
2022-12-05T13:16:29.125Z,24.2
2022-12-05T13:17:16.552Z,24.2
2022-12-05T13:18:03.819Z,24.1
2022-12-05T13:18:51.136Z,24.1
2022-12-05T13:19:38.538Z,24.1
2022-12-05T13:20:25.859Z,24.1
2022-12-05T13:21:13.137Z,24.0
2022-12-05T13:22:00.600Z,24.0
2022-12-05T13:22:47.872Z,24.0
2022-12-05T13:23:35.176Z,24.0
2022-12-05T13:24:22.567Z,23.9
2022-12-05T13:25:09.836Z,23.9
2022-12-05T13:25:57.132Z,23.9
2022-12-05T13:26:44.497Z,23.9
2022-12-05T13:27:31.786Z,23.9
2022-12-05T13:28:24.221Z,23.9
2022-12-05T13:29:13.068Z,23.9
2022-12-05T13:30:01.011Z,23.9
2022-12-05T13:30:48.640Z,23.9
2022-12-05T13:31:35.971Z,23.9
2022-12-05T13:32:23.289Z,23.9
2022-12-05T13:33:10.737Z,23.9
2022-12-05T13:33:58.023Z,23.9
2022-12-05T13:34:45.296Z,23.9
2022-12-05T13:35:32.721Z,23.9
2022-12-05T13:36:20.042Z,23.8
2022-12-05T13:37:07.321Z,23.8
2022-12-05T13:37:54.742Z,23.8
2022-12-05T13:38:42.054Z,23.8
2022-12-05T13:39:29.339Z,23.8
2022-12-05T13:40:16.769Z,23.8
2022-12-05T13:41:04.072Z,23.8
2022-12-05T13:41:51.385Z,23.8
2022-12-05T13:42:38.788Z,23.8
2022-12-05T13:43:26.092Z,23.8
2022-12-05T13:44:13.402Z,23.8
2022-12-05T13:45:00.809Z,23.8
2022-12-05T13:45:48.169Z,23.8
2022-12-05T13:46:35.514Z,23.7
2022-12-05T13:47:22.913Z,23.8
2022-12-05T13:48:10.180Z,23.7
2022-12-05T13:48:57.487Z,23.7
2022-12-05T13:49:44.848Z,23.7
2022-12-05T13:50:32.224Z,23.7
2022-12-05T13:51:19.604Z,23.7
2022-12-05T13:52:07.044Z,23.7
2022-12-05T13:52:54.363Z,23.7
2022-12-05T13:53:41.676Z,23.7
2022-12-05T13:54:29.052Z,23.7
2022-12-05T13:55:16.367Z,23.7
2022-12-05T13:56:03.696Z,23.7
2022-12-05T13:56:51.040Z,23.7
2022-12-05T13:57:38.319Z,23.7
2022-12-05T13:58:25.641Z,23.7
2022-12-05T13:59:12.989Z,23.8
2022-12-05T14:00:00.647Z,23.9
2022-12-05T14:00:50.863Z,23.9
2022-12-05T14:01:44.787Z,24.0
2022-12-05T14:02:33.914Z,24.0
2022-12-05T14:03:21.292Z,24.1
2022-12-05T14:04:08.627Z,24.2
2022-12-05T14:04:55.912Z,24.2
2022-12-05T14:05:43.391Z,24.2
2022-12-05T14:06:30.751Z,24.3
2022-12-05T14:07:18.076Z,24.3
2022-12-05T14:08:05.589Z,24.3
2022-12-05T14:08:52.914Z,24.3
2022-12-05T14:09:40.231Z,24.3
2022-12-05T14:10:27.652Z,24.3
2022-12-05T14:11:14.943Z,24.3
2022-12-05T14:12:02.274Z,24.3
2022-12-05T14:12:49.910Z,24.3
2022-12-05T14:13:37.257Z,24.4
2022-12-05T14:14:24.598Z,24.4
2022-12-05T14:15:12.013Z,24.4
2022-12-05T14:15:59.336Z,24.4
2022-12-05T14:16:46.723Z,24.4
2022-12-05T14:17:34.093Z,24.4
2022-12-05T14:18:21.400Z,24.4
2022-12-05T14:19:08.709Z,24.4
2022-12-05T14:19:56.316Z,24.4
2022-12-05T14:20:44.150Z,24.5
2022-12-05T14:21:31.451Z,24.5
2022-12-05T14:22:18.746Z,24.5
2022-12-05T14:23:06.155Z,24.5
2022-12-05T14:23:53.462Z,24.5
2022-12-05T14:24:40.772Z,24.5
2022-12-05T14:25:28.213Z,24.6
2022-12-05T14:26:15.544Z,24.6
2022-12-05T14:27:02.835Z,24.6
2022-12-05T14:27:50.285Z,24.6
2022-12-05T14:28:37.601Z,24.6
2022-12-05T14:29:24.879Z,24.7
2022-12-05T14:30:12.349Z,24.7
2022-12-05T14:30:59.648Z,24.6
2022-12-05T14:31:46.963Z,24.7
2022-12-05T14:32:34.423Z,24.7
2022-12-05T14:33:21.746Z,24.7
2022-12-05T14:34:09.025Z,24.7
2022-12-05T14:34:56.455Z,24.8
2022-12-05T14:35:43.770Z,24.8
2022-12-05T14:36:31.080Z,24.8
2022-12-05T14:37:18.532Z,24.8
2022-12-05T14:38:05.870Z,24.8
2022-12-05T14:38:53.178Z,24.8
2022-12-05T14:39:40.577Z,24.8
2022-12-05T14:40:27.852Z,24.9
2022-12-05T14:41:15.131Z,24.9
2022-12-05T14:42:02.564Z,24.9
2022-12-05T14:42:49.873Z,24.9
2022-12-05T14:43:37.151Z,24.9
2022-12-05T14:44:24.606Z,24.9
2022-12-05T14:45:11.910Z,24.9
2022-12-05T14:45:59.265Z,24.9
2022-12-05T14:46:46.623Z,24.9
2022-12-05T14:47:33.892Z,24.9
2022-12-05T14:48:21.160Z,24.9
2022-12-05T14:49:08.597Z,24.9
2022-12-05T14:49:55.897Z,24.9
2022-12-05T14:50:43.224Z,24.9
2022-12-05T14:51:30.655Z,24.9
2022-12-05T14:52:17.936Z,25.0
2022-12-05T14:53:05.237Z,25.0
2022-12-05T14:53:52.687Z,25.0
2022-12-05T14:54:39.995Z,25.0
2022-12-05T14:55:27.385Z,25.0
2022-12-05T14:56:14.717Z,25.0
2022-12-05T14:57:02.049Z,25.0
2022-12-05T14:57:49.390Z,25.0
2022-12-05T14:58:36.976Z,25.0
2022-12-05T14:59:24.272Z,25.0
2022-12-05T15:00:11.548Z,25.0
2022-12-05T15:00:59.061Z,25.0
2022-12-05T15:01:46.417Z,25.1
2022-12-05T15:02:33.733Z,25.0
2022-12-05T15:03:21.126Z,25.0
2022-12-05T15:04:08.524Z,25.0
2022-12-05T15:04:55.899Z,25.0
2022-12-05T15:05:43.274Z,25.0
2022-12-05T15:06:30.551Z,25.0
2022-12-05T15:07:17.836Z,25.0
2022-12-05T15:08:05.249Z,25.0
2022-12-05T15:08:55.104Z,25.0
2022-12-05T15:09:42.625Z,25.0
2022-12-05T15:10:29.984Z,25.0
2022-12-05T15:11:17.329Z,25.1
2022-12-05T15:12:09.399Z,25.0
2022-12-05T15:12:57.155Z,25.0
2022-12-05T15:13:44.560Z,25.0
2022-12-05T15:14:33.879Z,25.0
2022-12-05T15:15:21.390Z,25.0
2022-12-05T15:16:08.746Z,25.0
2022-12-05T15:16:56.077Z,25.0
2022-12-05T15:17:43.378Z,25.0
2022-12-05T15:18:30.841Z,25.0
2022-12-05T15:19:18.115Z,25.0
2022-12-05T15:20:05.385Z,25.0
2022-12-05T15:20:52.811Z,24.9
2022-12-05T15:21:40.113Z,24.9
2022-12-05T15:22:27.480Z,24.9
2022-12-05T15:23:14.827Z,24.8
2022-12-05T15:24:02.118Z,24.8
2022-12-05T15:24:49.424Z,24.8
2022-12-05T15:25:36.852Z,24.9
2022-12-05T15:27:21.402Z,24.9
2022-12-05T15:28:08.843Z,24.9
2022-12-05T15:28:56.151Z,24.9
2022-12-05T15:29:43.471Z,24.9
2022-12-05T15:30:30.896Z,24.9
2022-12-05T15:31:18.252Z,24.9
2022-12-05T15:32:05.653Z,24.9
2022-12-05T15:32:59.013Z,24.9
2022-12-05T15:33:46.634Z,24.9
2022-12-05T15:34:34.086Z,24.9
2022-12-05T15:35:21.410Z,24.9
2022-12-05T15:36:08.723Z,24.9
2022-12-05T15:36:56.126Z,24.9
2022-12-05T15:37:43.387Z,25.0
2022-12-05T15:38:30.804Z,25.0
2022-12-05T15:39:18.090Z,24.9